sensor_id;sensor_type;location;lat;lon;timestamp;temperature;humidity
16128;DHT22;8168;49.036;7.690;2023-02-01T00:00:27;5.40;99.90
16128;DHT22;8168;49.036;7.690;2023-02-01T00:02:57;5.40;99.90
16128;DHT22;8168;49.036;7.690;2023-02-01T00:05:28;5.40;99.90
16128;DHT22;8168;49.036;7.690;2023-02-01T00:07:59;5.40;99.90
16128;DHT22;8168;49.036;7.690;2023-02-01T00:10:29;5.90;99.90
16128;DHT22;8168;49.036;7.690;2023-02-01T00:13:00;5.40;99.90
16128;DHT22;8168;49.036;7.690;2023-02-01T00:15:30;5.40;99.90
16128;DHT22;8168;49.036;7.690;2023-02-01T00:18:01;5.50;99.90
16128;DHT22;8168;49.036;7.690;2023-02-01T00:20:32;5.40;99.90
16128;DHT22;8168;49.036;7.690;2023-02-01T00:23:02;5.40;99.90
16128;DHT22;8168;49.036;7.690;2023-02-01T00:25:33;5.40;99.90
16128;DHT22;8168;49.036;7.690;2023-02-01T00:28:03;5.40;99.90
16128;DHT22;8168;49.036;7.690;2023-02-01T00:30:34;5.40;99.90
16128;DHT22;8168;49.036;7.690;2023-02-01T00:33:05;5.40;99.90
16128;DHT22;8168;49.036;7.690;2023-02-01T00:35:36;5.40;99.90
16128;DHT22;8168;49.036;7.690;2023-02-01T00:38:06;5.40;99.90
16128;DHT22;8168;49.036;7.690;2023-02-01T00:40:37;5.40;99.90
16128;DHT22;8168;49.036;7.690;2023-02-01T00:43:07;5.40;99.90
16128;DHT22;8168;49.036;7.690;2023-02-01T00:45:38;5.40;99.90
16128;DHT22;8168;49.036;7.690;2023-02-01T00:48:08;5.50;99.90
16128;DHT22;8168;49.036;7.690;2023-02-01T00:50:43;5.40;99.90
16128;DHT22;8168;49.036;7.690;2023-02-01T00:53:17;5.80;99.90
16128;DHT22;8168;49.036;7.690;2023-02-01T00:55:48;5.40;99.90
16128;DHT22;8168;49.036;7.690;2023-02-01T00:58:18;5.30;99.90
16128;DHT22;8168;49.036;7.690;2023-02-01T01:00:49;5.40;99.90
16128;DHT22;8168;49.036;7.690;2023-02-01T01:03:20;5.40;99.90
16128;DHT22;8168;49.036;7.690;2023-02-01T01:05:50;5.40;99.90
16128;DHT22;8168;49.036;7.690;2023-02-01T01:08:21;5.40;99.90
16128;DHT22;8168;49.036;7.690;2023-02-01T01:10:52;5.40;99.90
16128;DHT22;8168;49.036;7.690;2023-02-01T01:13:22;5.40;99.90
16128;DHT22;8168;49.036;7.690;2023-02-01T01:15:59;5.50;99.90
16128;DHT22;8168;49.036;7.690;2023-02-01T01:18:33;5.40;99.90
16128;DHT22;8168;49.036;7.690;2023-02-01T01:21:05;5.40;99.90
16128;DHT22;8168;49.036;7.690;2023-02-01T01:23:36;5.40;99.90
16128;DHT22;8168;49.036;7.690;2023-02-01T01:26:18;5.40;99.90
16128;DHT22;8168;49.036;7.690;2023-02-01T01:28:49;5.40;99.90
16128;DHT22;8168;49.036;7.690;2023-02-01T01:31:20;5.40;99.90
16128;DHT22;8168;49.036;7.690;2023-02-01T01:33:52;5.40;99.90
16128;DHT22;8168;49.036;7.690;2023-02-01T01:36:24;5.40;99.90
16128;DHT22;8168;49.036;7.690;2023-02-01T01:38:55;5.40;99.90
16128;DHT22;8168;49.036;7.690;2023-02-01T01:41:29;5.40;99.90
16128;DHT22;8168;49.036;7.690;2023-02-01T01:44:05;5.40;99.90
16128;DHT22;8168;49.036;7.690;2023-02-01T01:46:37;5.40;99.90
16128;DHT22;8168;49.036;7.690;2023-02-01T01:49:17;5.40;99.90
16128;DHT22;8168;49.036;7.690;2023-02-01T01:51:56;5.50;99.90
16128;DHT22;8168;49.036;7.690;2023-02-01T01:54:35;5.40;99.90
16128;DHT22;8168;49.036;7.690;2023-02-01T01:57:34;5.40;99.90
16128;DHT22;8168;49.036;7.690;2023-02-01T02:00:09;5.40;99.90
16128;DHT22;8168;49.036;7.690;2023-02-01T02:02:43;5.40;99.90
16128;DHT22;8168;49.036;7.690;2023-02-01T02:05:16;5.40;99.90
16128;DHT22;8168;49.036;7.690;2023-02-01T02:07:49;5.40;99.90
16128;DHT22;8168;49.036;7.690;2023-02-01T02:10:21;5.40;99.90
16128;DHT22;8168;49.036;7.690;2023-02-01T02:13:12;5.40;99.90
16128;DHT22;8168;49.036;7.690;2023-02-01T02:16:02;5.40;99.90
16128;DHT22;8168;49.036;7.690;2023-02-01T02:22:05;5.40;99.90
16128;DHT22;8168;49.036;7.690;2023-02-01T02:34:27;5.50;99.90
16128;DHT22;8168;49.036;7.690;2023-02-01T02:40:22;5.40;99.90
16128;DHT22;8168;49.036;7.690;2023-02-01T02:43:21;5.40;99.90
16128;DHT22;8168;49.036;7.690;2023-02-01T02:46:36;5.40;99.90
16128;DHT22;8168;49.036;7.690;2023-02-01T02:49:34;5.50;99.90
16128;DHT22;8168;49.036;7.690;2023-02-01T02:52:12;5.50;99.90
16128;DHT22;8168;49.036;7.690;2023-02-01T02:55:04;5.50;99.90
16128;DHT22;8168;49.036;7.690;2023-02-01T02:57:40;5.40;99.90
16128;DHT22;8168;49.036;7.690;2023-02-01T03:00:33;5.40;99.90
16128;DHT22;8168;49.036;7.690;2023-02-01T03:03:23;5.40;99.90
16128;DHT22;8168;49.036;7.690;2023-02-01T03:06:16;5.50;99.90
16128;DHT22;8168;49.036;7.690;2023-02-01T03:08:49;5.50;99.90
16128;DHT22;8168;49.036;7.690;2023-02-01T03:11:24;5.40;99.90
16128;DHT22;8168;49.036;7.690;2023-02-01T03:14:16;5.40;99.90
16128;DHT22;8168;49.036;7.690;2023-02-01T03:16:54;5.40;99.90
16128;DHT22;8168;49.036;7.690;2023-02-01T03:19:35;5.40;99.90
16128;DHT22;8168;49.036;7.690;2023-02-01T03:22:10;5.50;99.90
16128;DHT22;8168;49.036;7.690;2023-02-01T03:24:45;5.40;99.90
16128;DHT22;8168;49.036;7.690;2023-02-01T03:27:32;5.40;99.90
16128;DHT22;8168;49.036;7.690;2023-02-01T03:32:51;5.50;99.90
16128;DHT22;8168;49.036;7.690;2023-02-01T03:36:13;5.50;99.90
16128;DHT22;8168;49.036;7.690;2023-02-01T03:41:35;5.50;99.90
16128;DHT22;8168;49.036;7.690;2023-02-01T03:44:21;5.40;99.90
16128;DHT22;8168;49.036;7.690;2023-02-01T03:46:59;5.40;99.90
16128;DHT22;8168;49.036;7.690;2023-02-01T03:49:37;5.40;99.90
16128;DHT22;8168;49.036;7.690;2023-02-01T03:52:15;5.40;99.90
16128;DHT22;8168;49.036;7.690;2023-02-01T03:54:47;5.50;99.90
16128;DHT22;8168;49.036;7.690;2023-02-01T03:57:29;5.50;99.90
16128;DHT22;8168;49.036;7.690;2023-02-01T04:00:17;5.50;99.90
16128;DHT22;8168;49.036;7.690;2023-02-01T04:02:48;5.50;99.90
16128;DHT22;8168;49.036;7.690;2023-02-01T04:05:19;5.50;99.90
16128;DHT22;8168;49.036;7.690;2023-02-01T04:10:21;5.40;99.90
16128;DHT22;8168;49.036;7.690;2023-02-01T04:12:52;5.50;99.90
16128;DHT22;8168;49.036;7.690;2023-02-01T04:15:23;5.40;99.90
16128;DHT22;8168;49.036;7.690;2023-02-01T04:17:53;5.50;99.90
16128;DHT22;8168;49.036;7.690;2023-02-01T04:20:24;5.50;99.90
16128;DHT22;8168;49.036;7.690;2023-02-01T04:22:55;5.50;99.90
16128;DHT22;8168;49.036;7.690;2023-02-01T04:25:25;5.50;99.90
16128;DHT22;8168;49.036;7.690;2023-02-01T04:27:56;5.50;99.90
16128;DHT22;8168;49.036;7.690;2023-02-01T04:30:27;5.50;99.90
16128;DHT22;8168;49.036;7.690;2023-02-01T04:38:00;5.50;99.90
16128;DHT22;8168;49.036;7.690;2023-02-01T04:43:01;5.50;99.90
16128;DHT22;8168;49.036;7.690;2023-02-01T04:45:33;5.50;99.90
16128;DHT22;8168;49.036;7.690;2023-02-01T04:48:04;5.50;99.90
16128;DHT22;8168;49.036;7.690;2023-02-01T04:53:06;5.50;99.90
16128;DHT22;8168;49.036;7.690;2023-02-01T04:55:36;5.50;99.90
16128;DHT22;8168;49.036;7.690;2023-02-01T04:58:07;5.50;99.90
16128;DHT22;8168;49.036;7.690;2023-02-01T05:00:38;5.50;99.90
16128;DHT22;8168;49.036;7.690;2023-02-01T05:03:09;5.50;99.90
16128;DHT22;8168;49.036;7.690;2023-02-01T05:05:39;5.50;99.90
16128;DHT22;8168;49.036;7.690;2023-02-01T05:08:10;5.50;99.90
16128;DHT22;8168;49.036;7.690;2023-02-01T05:10:41;5.50;99.90
16128;DHT22;8168;49.036;7.690;2023-02-01T05:13:11;5.50;99.90
16128;DHT22;8168;49.036;7.690;2023-02-01T05:16:00;5.50;99.90
16128;DHT22;8168;49.036;7.690;2023-02-01T05:21:02;5.60;99.90
16128;DHT22;8168;49.036;7.690;2023-02-01T05:23:32;5.60;99.90
16128;DHT22;8168;49.036;7.690;2023-02-01T05:26:24;5.60;99.90
16128;DHT22;8168;49.036;7.690;2023-02-01T05:28:55;5.60;99.90
16128;DHT22;8168;49.036;7.690;2023-02-01T05:31:25;5.60;99.90
16128;DHT22;8168;49.036;7.690;2023-02-01T05:33:56;5.60;99.90
16128;DHT22;8168;49.036;7.690;2023-02-01T05:36:27;5.70;99.90
16128;DHT22;8168;49.036;7.690;2023-02-01T05:38:57;5.70;99.90
16128;DHT22;8168;49.036;7.690;2023-02-01T05:41:28;5.60;99.90
16128;DHT22;8168;49.036;7.690;2023-02-01T05:46:30;5.70;99.90
16128;DHT22;8168;49.036;7.690;2023-02-01T05:51:31;5.70;99.90
16128;DHT22;8168;49.036;7.690;2023-02-01T05:54:03;5.70;99.90
16128;DHT22;8168;49.036;7.690;2023-02-01T06:01:36;5.80;99.90
16128;DHT22;8168;49.036;7.690;2023-02-01T06:04:07;5.80;99.90
16128;DHT22;8168;49.036;7.690;2023-02-01T06:06:37;5.80;99.90
16128;DHT22;8168;49.036;7.690;2023-02-01T06:11:39;5.80;99.90
16128;DHT22;8168;49.036;7.690;2023-02-01T06:19:13;5.80;99.90
16128;DHT22;8168;49.036;7.690;2023-02-01T06:21:43;5.80;99.90
16128;DHT22;8168;49.036;7.690;2023-02-01T06:24:15;5.80;99.90
16128;DHT22;8168;49.036;7.690;2023-02-01T06:29:17;5.80;99.90
16128;DHT22;8168;49.036;7.690;2023-02-01T06:31:47;5.70;99.90
16128;DHT22;8168;49.036;7.690;2023-02-01T06:34:18;5.80;99.90
16128;DHT22;8168;49.036;7.690;2023-02-01T06:36:49;5.80;99.90
16128;DHT22;8168;49.036;7.690;2023-02-01T06:39:20;5.80;99.90
16128;DHT22;8168;49.036;7.690;2023-02-01T06:41:50;5.80;99.90
16128;DHT22;8168;49.036;7.690;2023-02-01T06:44:21;5.80;99.90
16128;DHT22;8168;49.036;7.690;2023-02-01T06:46:52;5.80;99.90
16128;DHT22;8168;49.036;7.690;2023-02-01T06:49:22;5.90;99.90
16128;DHT22;8168;49.036;7.690;2023-02-01T06:51:53;5.90;99.90
16128;DHT22;8168;49.036;7.690;2023-02-01T06:54:24;5.90;99.90
16128;DHT22;8168;49.036;7.690;2023-02-01T06:56:54;5.90;99.90
16128;DHT22;8168;49.036;7.690;2023-02-01T06:59:25;5.80;99.90
16128;DHT22;8168;49.036;7.690;2023-02-01T07:01:56;5.80;99.90
16128;DHT22;8168;49.036;7.690;2023-02-01T07:04:26;5.80;99.90
16128;DHT22;8168;49.036;7.690;2023-02-01T07:11:59;5.80;99.90
16128;DHT22;8168;49.036;7.690;2023-02-01T07:17:00;5.80;99.90
16128;DHT22;8168;49.036;7.690;2023-02-01T07:19:31;5.80;99.90
16128;DHT22;8168;49.036;7.690;2023-02-01T07:22:01;5.80;99.90
16128;DHT22;8168;49.036;7.690;2023-02-01T07:24:33;5.80;99.90
16128;DHT22;8168;49.036;7.690;2023-02-01T07:27:04;5.80;99.90
16128;DHT22;8168;49.036;7.690;2023-02-01T07:29:36;5.90;99.90
16128;DHT22;8168;49.036;7.690;2023-02-01T07:32:06;5.90;99.90
16128;DHT22;8168;49.036;7.690;2023-02-01T07:34:37;5.80;99.90
16128;DHT22;8168;49.036;7.690;2023-02-01T07:37:07;5.80;99.90
16128;DHT22;8168;49.036;7.690;2023-02-01T07:39:38;5.80;99.90
16128;DHT22;8168;49.036;7.690;2023-02-01T07:42:08;5.80;99.90
16128;DHT22;8168;49.036;7.690;2023-02-01T07:44:39;5.80;99.90
16128;DHT22;8168;49.036;7.690;2023-02-01T07:47:10;5.80;99.90
16128;DHT22;8168;49.036;7.690;2023-02-01T07:49:40;1.80;99.90
16128;DHT22;8168;49.036;7.690;2023-02-01T07:52:11;5.80;99.90
16128;DHT22;8168;49.036;7.690;2023-02-01T07:54:43;5.80;99.90
16128;DHT22;8168;49.036;7.690;2023-02-01T07:57:14;5.80;99.90
16128;DHT22;8168;49.036;7.690;2023-02-01T07:59:44;5.80;99.90
16128;DHT22;8168;49.036;7.690;2023-02-01T08:02:33;5.80;99.90
16128;DHT22;8168;49.036;7.690;2023-02-01T08:05:04;5.80;99.90
16128;DHT22;8168;49.036;7.690;2023-02-01T08:10:07;5.80;99.90
16128;DHT22;8168;49.036;7.690;2023-02-01T08:12:41;5.90;99.90
16128;DHT22;8168;49.036;7.690;2023-02-01T08:17:51;5.80;99.90
16128;DHT22;8168;49.036;7.690;2023-02-01T08:20:22;5.90;99.90
16128;DHT22;8168;49.036;7.690;2023-02-01T08:25:25;5.90;99.90
16128;DHT22;8168;49.036;7.690;2023-02-01T08:27:56;5.90;99.90
16128;DHT22;8168;49.036;7.690;2023-02-01T08:30:26;5.90;99.90
16128;DHT22;8168;49.036;7.690;2023-02-01T08:32:58;5.90;99.90
16128;DHT22;8168;49.036;7.690;2023-02-01T08:40:32;6.00;99.90
16128;DHT22;8168;49.036;7.690;2023-02-01T08:55:38;5.90;99.90
16128;DHT22;8168;49.036;7.690;2023-02-01T08:58:08;6.00;99.90
16128;DHT22;8168;49.036;7.690;2023-02-01T09:00:39;5.90;99.90
16128;DHT22;8168;49.036;7.690;2023-02-01T09:03:11;6.00;99.90
16128;DHT22;8168;49.036;7.690;2023-02-01T09:08:13;6.00;99.90
16128;DHT22;8168;49.036;7.690;2023-02-01T09:10:45;6.10;99.90
16128;DHT22;8168;49.036;7.690;2023-02-01T09:13:15;6.10;99.90
16128;DHT22;8168;49.036;7.690;2023-02-01T09:15:46;6.10;99.90
16128;DHT22;8168;49.036;7.690;2023-02-01T09:20:48;6.10;99.90
16128;DHT22;8168;49.036;7.690;2023-02-01T09:25:50;6.10;99.90
16128;DHT22;8168;49.036;7.690;2023-02-01T09:28:21;6.10;99.90
16128;DHT22;8168;49.036;7.690;2023-02-01T09:30:59;6.10;99.90
16128;DHT22;8168;49.036;7.690;2023-02-01T09:33:30;6.20;99.90
16128;DHT22;8168;49.036;7.690;2023-02-01T09:36:03;6.20;99.90
16128;DHT22;8168;49.036;7.690;2023-02-01T09:38:35;6.20;99.90
16128;DHT22;8168;49.036;7.690;2023-02-01T09:41:37;6.50;99.90
16128;DHT22;8168;49.036;7.690;2023-02-01T09:47:38;6.30;99.90
16128;DHT22;8168;49.036;7.690;2023-02-01T09:50:16;6.30;99.90
16128;DHT22;8168;49.036;7.690;2023-02-01T09:53:03;6.30;99.90
16128;DHT22;8168;49.036;7.690;2023-02-01T09:55:42;6.30;99.90
16128;DHT22;8168;49.036;7.690;2023-02-01T09:58:27;6.30;99.90
16128;DHT22;8168;49.036;7.690;2023-02-01T10:01:02;6.80;99.90
16128;DHT22;8168;49.036;7.690;2023-02-01T10:03:34;6.30;99.90
16128;DHT22;8168;49.036;7.690;2023-02-01T10:06:21;6.40;99.90
16128;DHT22;8168;49.036;7.690;2023-02-01T10:09:14;6.40;99.90
16128;DHT22;8168;49.036;7.690;2023-02-01T10:21:00;6.50;99.90
16128;DHT22;8168;49.036;7.690;2023-02-01T10:26:19;6.50;99.90
16128;DHT22;8168;49.036;7.690;2023-02-01T10:29:03;6.60;99.90
16128;DHT22;8168;49.036;7.690;2023-02-01T10:31:37;6.60;99.90
16128;DHT22;8168;49.036;7.690;2023-02-01T10:34:19;6.60;99.90
16128;DHT22;8168;49.036;7.690;2023-02-01T10:39:54;6.60;99.90
16128;DHT22;8168;49.036;7.690;2023-02-01T10:42:27;6.60;99.90
16128;DHT22;8168;49.036;7.690;2023-02-01T10:45:01;6.60;99.90
16128;DHT22;8168;49.036;7.690;2023-02-01T10:47:32;6.80;99.90
16128;DHT22;8168;49.036;7.690;2023-02-01T10:53:21;6.60;99.90
16128;DHT22;8168;49.036;7.690;2023-02-01T10:55:55;6.80;99.90
16128;DHT22;8168;49.036;7.690;2023-02-01T10:58:31;6.60;99.90
16128;DHT22;8168;49.036;7.690;2023-02-01T11:01:07;6.60;99.90
16128;DHT22;8168;49.036;7.690;2023-02-01T11:03:42;6.60;99.90
16128;DHT22;8168;49.036;7.690;2023-02-01T11:06:33;6.60;99.90
16128;DHT22;8168;49.036;7.690;2023-02-01T11:14:19;6.70;99.90
16128;DHT22;8168;49.036;7.690;2023-02-01T11:16:53;7.00;99.90
16128;DHT22;8168;49.036;7.690;2023-02-01T11:19:24;6.70;99.90
16128;DHT22;8168;49.036;7.690;2023-02-01T11:21:57;6.70;99.90
16128;DHT22;8168;49.036;7.690;2023-02-01T11:24:34;6.60;99.90
16128;DHT22;8168;49.036;7.690;2023-02-01T11:27:16;6.80;99.90
16128;DHT22;8168;49.036;7.690;2023-02-01T11:29:51;6.80;99.90
16128;DHT22;8168;49.036;7.690;2023-02-01T11:32:23;6.70;99.90
16128;DHT22;8168;49.036;7.690;2023-02-01T11:35:04;6.80;99.90
16128;DHT22;8168;49.036;7.690;2023-02-01T11:37:41;6.80;99.90
16128;DHT22;8168;49.036;7.690;2023-02-01T11:43:00;6.80;99.90
16128;DHT22;8168;49.036;7.690;2023-02-01T11:45:32;7.10;99.90
16128;DHT22;8168;49.036;7.690;2023-02-01T11:48:15;6.80;99.90
16128;DHT22;8168;49.036;7.690;2023-02-01T12:33:52;6.80;99.90
16128;DHT22;8168;49.036;7.690;2023-02-01T12:39:37;6.80;99.90
16128;DHT22;8168;49.036;7.690;2023-02-01T12:42:19;7.10;99.90
16128;DHT22;8168;49.036;7.690;2023-02-01T12:47:39;6.80;99.90
16128;DHT22;8168;49.036;7.690;2023-02-01T12:50:23;6.70;99.90
16128;DHT22;8168;49.036;7.690;2023-02-01T12:55:48;6.80;99.90
16128;DHT22;8168;49.036;7.690;2023-02-01T12:58:27;7.10;99.90
16128;DHT22;8168;49.036;7.690;2023-02-01T13:01:09;6.80;99.90
16128;DHT22;8168;49.036;7.690;2023-02-01T13:03:56;6.80;99.90
16128;DHT22;8168;49.036;7.690;2023-02-01T13:06:33;6.80;99.90
16128;DHT22;8168;49.036;7.690;2023-02-01T13:09:33;6.80;99.90
16128;DHT22;8168;49.036;7.690;2023-02-01T13:12:14;6.80;99.90
16128;DHT22;8168;49.036;7.690;2023-02-01T13:14:51;6.80;99.90
16128;DHT22;8168;49.036;7.690;2023-02-01T13:17:28;6.80;99.90
16128;DHT22;8168;49.036;7.690;2023-02-01T13:22:50;6.80;99.90
16128;DHT22;8168;49.036;7.690;2023-02-01T13:25:39;6.80;99.90
16128;DHT22;8168;49.036;7.690;2023-02-01T13:28:16;6.80;99.90
16128;DHT22;8168;49.036;7.690;2023-02-01T13:42:02;6.80;99.90
16128;DHT22;8168;49.036;7.690;2023-02-01T13:44:55;6.80;99.90
16128;DHT22;8168;49.036;7.690;2023-02-01T13:47:32;6.80;99.90
16128;DHT22;8168;49.036;7.690;2023-02-01T13:52:44;6.90;99.90
16128;DHT22;8168;49.036;7.690;2023-02-01T13:58:20;6.90;99.90
16128;DHT22;8168;49.036;7.690;2023-02-01T14:00:51;7.10;99.90
16128;DHT22;8168;49.036;7.690;2023-02-01T14:03:49;6.80;99.90
16128;DHT22;8168;49.036;7.690;2023-02-01T14:09:19;6.80;99.90
16128;DHT22;8168;49.036;7.690;2023-02-01T14:15:24;6.90;99.90
16128;DHT22;8168;49.036;7.690;2023-02-01T14:17:56;6.80;99.90
16128;DHT22;8168;49.036;7.690;2023-02-01T14:20:44;6.90;99.90
16128;DHT22;8168;49.036;7.690;2023-02-01T14:23:21;6.90;99.90
16128;DHT22;8168;49.036;7.690;2023-02-01T14:26:03;6.90;99.90
16128;DHT22;8168;49.036;7.690;2023-02-01T14:28:39;7.00;99.90
16128;DHT22;8168;49.036;7.690;2023-02-01T14:31:15;7.00;99.90
16128;DHT22;8168;49.036;7.690;2023-02-01T14:33:47;7.10;99.90
16128;DHT22;8168;49.036;7.690;2023-02-01T14:36:18;6.90;99.90
16128;DHT22;8168;49.036;7.690;2023-02-01T14:38:49;6.90;99.90
16128;DHT22;8168;49.036;7.690;2023-02-01T14:47:03;7.00;99.90
16128;DHT22;8168;49.036;7.690;2023-02-01T14:49:41;7.00;99.90
16128;DHT22;8168;49.036;7.690;2023-02-01T14:52:16;7.30;99.90
16128;DHT22;8168;49.036;7.690;2023-02-01T14:54:53;7.10;99.90
16128;DHT22;8168;49.036;7.690;2023-02-01T14:57:26;7.10;99.90
16128;DHT22;8168;49.036;7.690;2023-02-01T15:00:18;7.10;99.90
16128;DHT22;8168;49.036;7.690;2023-02-01T15:02:50;7.10;99.90
16128;DHT22;8168;49.036;7.690;2023-02-01T15:05:26;7.20;99.90
16128;DHT22;8168;49.036;7.690;2023-02-01T15:08:15;7.20;99.90
16128;DHT22;8168;49.036;7.690;2023-02-01T15:10:49;7.20;99.90
16128;DHT22;8168;49.036;7.690;2023-02-01T15:13:24;7.20;99.90
16128;DHT22;8168;49.036;7.690;2023-02-01T15:16:11;7.20;99.90
16128;DHT22;8168;49.036;7.690;2023-02-01T15:18:42;7.70;99.90
16128;DHT22;8168;49.036;7.690;2023-02-01T15:21:20;7.20;99.90
16128;DHT22;8168;49.036;7.690;2023-02-01T15:24:10;7.10;99.90
16128;DHT22;8168;49.036;7.690;2023-02-01T15:26:42;7.10;99.90
16128;DHT22;8168;49.036;7.690;2023-02-01T15:29:13;7.10;99.90
16128;DHT22;8168;49.036;7.690;2023-02-01T15:31:50;7.10;99.90
16128;DHT22;8168;49.036;7.690;2023-02-01T15:34:21;7.10;99.90
16128;DHT22;8168;49.036;7.690;2023-02-01T15:36:51;7.60;99.90
16128;DHT22;8168;49.036;7.690;2023-02-01T15:39:24;7.10;99.90
16128;DHT22;8168;49.036;7.690;2023-02-01T15:41:58;7.10;99.90
16128;DHT22;8168;49.036;7.690;2023-02-01T15:44:42;7.30;99.90
16128;DHT22;8168;49.036;7.690;2023-02-01T15:47:18;7.10;99.90
16128;DHT22;8168;49.036;7.690;2023-02-01T15:49:55;7.10;99.90
16128;DHT22;8168;49.036;7.690;2023-02-01T15:52:37;7.10;99.90
16128;DHT22;8168;49.036;7.690;2023-02-01T15:55:40;7.10;99.90
16128;DHT22;8168;49.036;7.690;2023-02-01T15:58:18;7.10;99.90
16128;DHT22;8168;49.036;7.690;2023-02-01T16:01:01;7.00;99.90
16128;DHT22;8168;49.036;7.690;2023-02-01T16:09:12;7.00;99.90
16128;DHT22;8168;49.036;7.690;2023-02-01T16:14:19;7.00;99.90
16128;DHT22;8168;49.036;7.690;2023-02-01T16:16:51;7.00;99.90
16128;DHT22;8168;49.036;7.690;2023-02-01T16:19:22;7.00;99.90
16128;DHT22;8168;49.036;7.690;2023-02-01T16:21:56;7.00;99.90
16128;DHT22;8168;49.036;7.690;2023-02-01T16:24:26;7.00;99.90
16128;DHT22;8168;49.036;7.690;2023-02-01T16:26:57;6.90;99.90
16128;DHT22;8168;49.036;7.690;2023-02-01T16:29:28;6.90;99.90
16128;DHT22;8168;49.036;7.690;2023-02-01T16:31:59;7.40;99.90
16128;DHT22;8168;49.036;7.690;2023-02-01T16:34:30;6.90;99.90
16128;DHT22;8168;49.036;7.690;2023-02-01T16:37:01;6.90;99.90
16128;DHT22;8168;49.036;7.690;2023-02-01T16:39:32;6.90;99.90
16128;DHT22;8168;49.036;7.690;2023-02-01T16:42:11;6.90;99.90
16128;DHT22;8168;49.036;7.690;2023-02-01T16:44:43;7.00;99.90
16128;DHT22;8168;49.036;7.690;2023-02-01T16:47:20;6.80;99.90
16128;DHT22;8168;49.036;7.690;2023-02-01T16:49:52;7.30;99.90
16128;DHT22;8168;49.036;7.690;2023-02-01T16:52:24;6.80;99.90
16128;DHT22;8168;49.036;7.690;2023-02-01T16:54:55;6.80;99.90
16128;DHT22;8168;49.036;7.690;2023-02-01T16:57:26;6.80;99.90
16128;DHT22;8168;49.036;7.690;2023-02-01T16:59:58;6.80;99.90
16128;DHT22;8168;49.036;7.690;2023-02-01T17:02:32;6.80;99.90
16128;DHT22;8168;49.036;7.690;2023-02-01T17:05:03;6.70;99.90
16128;DHT22;8168;49.036;7.690;2023-02-01T17:07:33;6.80;99.90
16128;DHT22;8168;49.036;7.690;2023-02-01T17:10:05;6.70;99.90
16128;DHT22;8168;49.036;7.690;2023-02-01T17:12:36;6.70;99.90
16128;DHT22;8168;49.036;7.690;2023-02-01T17:15:08;6.70;99.90
16128;DHT22;8168;49.036;7.690;2023-02-01T17:17:40;6.80;99.90
16128;DHT22;8168;49.036;7.690;2023-02-01T17:20:23;7.00;99.90
16128;DHT22;8168;49.036;7.690;2023-02-01T17:22:53;6.70;99.90
16128;DHT22;8168;49.036;7.690;2023-02-01T17:25:24;7.00;99.90
16128;DHT22;8168;49.036;7.690;2023-02-01T17:27:56;6.70;99.90
16128;DHT22;8168;49.036;7.690;2023-02-01T17:30:27;6.70;99.90
16128;DHT22;8168;49.036;7.690;2023-02-01T17:32:58;6.70;99.90
16128;DHT22;8168;49.036;7.690;2023-02-01T17:35:29;6.70;99.90
16128;DHT22;8168;49.036;7.690;2023-02-01T17:38:01;6.70;99.90
16128;DHT22;8168;49.036;7.690;2023-02-01T17:40:32;6.70;99.90
16128;DHT22;8168;49.036;7.690;2023-02-01T17:43:03;7.00;99.90
16128;DHT22;8168;49.036;7.690;2023-02-01T17:45:44;6.70;99.90
16128;DHT22;8168;49.036;7.690;2023-02-01T17:48:21;6.70;99.90
16128;DHT22;8168;49.036;7.690;2023-02-01T17:50:52;6.60;99.90
16128;DHT22;8168;49.036;7.690;2023-02-01T17:53:28;6.70;99.90
16128;DHT22;8168;49.036;7.690;2023-02-01T17:55:59;6.70;99.90
16128;DHT22;8168;49.036;7.690;2023-02-01T17:58:31;6.70;99.90
16128;DHT22;8168;49.036;7.690;2023-02-01T18:01:02;6.90;99.90
16128;DHT22;8168;49.036;7.690;2023-02-01T18:03:33;6.70;99.90
16128;DHT22;8168;49.036;7.690;2023-02-01T18:06:09;6.90;99.90
16128;DHT22;8168;49.036;7.690;2023-02-01T18:08:41;6.70;99.90
16128;DHT22;8168;49.036;7.690;2023-02-01T18:11:20;6.70;99.90
16128;DHT22;8168;49.036;7.690;2023-02-01T18:13:52;6.70;99.90
16128;DHT22;8168;49.036;7.690;2023-02-01T18:16:26;6.70;99.90
16128;DHT22;8168;49.036;7.690;2023-02-01T18:18:57;6.70;99.90
16128;DHT22;8168;49.036;7.690;2023-02-01T18:21:39;6.70;99.90
16128;DHT22;8168;49.036;7.690;2023-02-01T18:24:15;6.60;99.90
16128;DHT22;8168;49.036;7.690;2023-02-01T18:26:46;6.60;99.90
16128;DHT22;8168;49.036;7.690;2023-02-01T18:29:17;6.60;99.90
16128;DHT22;8168;49.036;7.690;2023-02-01T18:31:48;6.70;99.90
16128;DHT22;8168;49.036;7.690;2023-02-01T18:34:20;6.60;99.90
16128;DHT22;8168;49.036;7.690;2023-02-01T18:36:51;6.60;99.90
16128;DHT22;8168;49.036;7.690;2023-02-01T18:39:23;6.60;99.90
16128;DHT22;8168;49.036;7.690;2023-02-01T18:41:53;6.50;99.90
16128;DHT22;8168;49.036;7.690;2023-02-01T18:44:24;6.90;99.90
16128;DHT22;8168;49.036;7.690;2023-02-01T18:46:54;6.60;99.90
16128;DHT22;8168;49.036;7.690;2023-02-01T18:49:25;6.60;99.90
16128;DHT22;8168;49.036;7.690;2023-02-01T18:51:56;6.60;99.90
16128;DHT22;8168;49.036;7.690;2023-02-01T18:54:26;6.50;99.90
16128;DHT22;8168;49.036;7.690;2023-02-01T18:56:57;6.60;99.90
16128;DHT22;8168;49.036;7.690;2023-02-01T18:59:28;6.50;99.90
16128;DHT22;8168;49.036;7.690;2023-02-01T19:01:59;6.80;99.90
16128;DHT22;8168;49.036;7.690;2023-02-01T19:04:32;6.50;99.90
16128;DHT22;8168;49.036;7.690;2023-02-01T19:07:03;6.80;99.90
16128;DHT22;8168;49.036;7.690;2023-02-01T19:09:33;6.50;99.90
16128;DHT22;8168;49.036;7.690;2023-02-01T19:12:05;6.50;99.90
16128;DHT22;8168;49.036;7.690;2023-02-01T19:14:36;6.50;99.90
16128;DHT22;8168;49.036;7.690;2023-02-01T19:17:06;6.50;99.90
16128;DHT22;8168;49.036;7.690;2023-02-01T19:19:37;6.50;99.90
16128;DHT22;8168;49.036;7.690;2023-02-01T19:22:07;6.50;99.90
16128;DHT22;8168;49.036;7.690;2023-02-01T19:24:38;6.70;99.90
16128;DHT22;8168;49.036;7.690;2023-02-01T19:27:09;6.70;99.90
16128;DHT22;8168;49.036;7.690;2023-02-01T19:29:40;6.50;99.90
16128;DHT22;8168;49.036;7.690;2023-02-01T19:32:14;6.50;99.90
16128;DHT22;8168;49.036;7.690;2023-02-01T19:34:45;6.50;99.90
16128;DHT22;8168;49.036;7.690;2023-02-01T19:37:16;6.60;99.90
16128;DHT22;8168;49.036;7.690;2023-02-01T19:39:46;6.60;99.90
16128;DHT22;8168;49.036;7.690;2023-02-01T19:42:17;7.00;99.90
16128;DHT22;8168;49.036;7.690;2023-02-01T19:44:48;6.90;99.90
16128;DHT22;8168;49.036;7.690;2023-02-01T19:47:19;6.70;99.90
16128;DHT22;8168;49.036;7.690;2023-02-01T19:49:49;7.10;99.90
16128;DHT22;8168;49.036;7.690;2023-02-01T19:52:20;6.70;99.90
16128;DHT22;8168;49.036;7.690;2023-02-01T19:54:50;7.00;99.90
16128;DHT22;8168;49.036;7.690;2023-02-01T19:57:21;6.70;99.90
16128;DHT22;8168;49.036;7.690;2023-02-01T19:59:52;7.00;99.90
16128;DHT22;8168;49.036;7.690;2023-02-01T20:02:23;6.70;99.90
16128;DHT22;8168;49.036;7.690;2023-02-01T20:04:54;6.70;99.90
16128;DHT22;8168;49.036;7.690;2023-02-01T20:07:25;6.70;99.90
16128;DHT22;8168;49.036;7.690;2023-02-01T20:09:55;7.20;99.90
16128;DHT22;8168;49.036;7.690;2023-02-01T20:12:26;6.70;99.90
16128;DHT22;8168;49.036;7.690;2023-02-01T20:14:57;7.20;99.90
16128;DHT22;8168;49.036;7.690;2023-02-01T20:17:27;6.70;99.90
16128;DHT22;8168;49.036;7.690;2023-02-01T20:19:58;6.70;99.90
16128;DHT22;8168;49.036;7.690;2023-02-01T20:22:29;7.10;99.90
16128;DHT22;8168;49.036;7.690;2023-02-01T20:24:59;6.70;99.90
16128;DHT22;8168;49.036;7.690;2023-02-01T20:27:32;6.70;99.90